Gettysburg, SD

07:13 CDT le 22 septembre 2014 (GMT -0500)
Aberdeen Regional | Change Station
CLOSE
Current Station
Aéroport
Location: Aberdeen,
Altitude: 1299 ft
Stations météo à proximité

Alt. 1299 ft 45.44 °N, 98.41 °W | Updated 20 minutes ago

Ciel dégagé
Ciel dégagé
40 ° F
Paraît 35 ° F
N
7
Vent Variable Vent de Sud

Aujourd'hui
Haut(e) -- | Bas -- ° F
--% Risque de précip.
Hier
Haut(e) -- | Bas -- ° F
Precip. -- pouce
7:27 AM 7:37 PM
Lune descendante, 3% visible
Pression 30.24 pouce
Visibilité 10.0 Miles terrestres
Nuages Ciel dégagé
Refroidissement éolien 35 ° F
Point de rosée 38 ° F
Humidité 93%
Précipitations 0.00 pouce
Profondeur de la couche neigeuse 0 in
UV 0 sur 12
Pollen 5.00 sur 12
Qualité de l'air Non disponible.
Flu Activity Non disponible.
METAR KABR 221153Z AUTO 17006KT 10SM CLR 04/03 A3023 RMK AO2 SLP238 T00440033 10067 20022 58000 $

More Conditions Fewer Conditions

Pression 30.24 pouce
Visibilité 10.0 Miles terrestres
Nuages Ciel dégagé
Refroidissement éolien 35 ° F
Point de rosée 38 ° F
Humidité 93%
Précipitations 0.00 pouce
Profondeur de la couche neigeuse 0 in
UV 0 sur 12
Pollen 5.00 sur 12
Qualité de l'air Non disponible.
Flu Activity Non disponible.
METAR KABR 221153Z AUTO 17006KT 10SM CLR 04/03 A3023 RMK AO2 SLP238 T00440033 10067 20022 58000 $

More Conditions Fewer Conditions

10-Day Weather Forecast

Almanac

Astronomie

Sep. 22, 2014 Lever Coucher
Temps réel 07:27 CDT 19:37 CDT
Crépuscule civil 06:57 CDT 20:06 CDT
Crépuscule nautique 06:23 CDT 20:41 CDT
Crépuscule astronomique 05:47 CDT 21:16 CDT
Lune 05:54 CDT 18:47 CDT
Durée de lumière visible 13h 08m
Longueur du jour
12h 10m
Tomorrow will be 3m 7s shorter.
Lune descendante, 3% of the Moon is Illuminated
Aujourd'hui
Lune descendante
Sep 24
Nouveau
Oct 1
Premier quartier
Oct 8
Pleine lune
Oct 15
Dernier quartier

Extrêmes aujourd'hui

State Highs State Lows

Community

WunderPhotos

Upload Photos

1,755,417 Photos téléchargées !

WunderBlogs® & News

Nearby

Épaisseur de neige

Station Depth Altitude
Blind Park 0 in 6890 ft

Activité sismique

Ville Distance Mag. Time & Date
No recent earthquake activity has been reported nearby.
Minimum magnitude displayed is 2.5.

Températures des eaux côtières

Lieu Température
Aucun rapport de station

Stations météo à proximité